Time;durP1;ratioP1;P1;durP2;ratioP2;P2;SDS_P1;SDS_P2;PMS_P1;PMS_P2;Temp;Humidity;BMP_temperature;BMP_pressure;BME280_temperature;BME280_humidity;BME280_pressure;Samples;Min_cycle;Max_cycle;Signal;HPM_P1;HPM_P2
2021/12/28 00:00:47;;;;;;;9.43;6.28;;;2.80;85.10;;;1.43;80.65;95572.38;4002367;34;20405;-84
2021/12/28 00:03:14;;;;;;;10.38;6.75;;;2.80;85.10;;;1.42;80.88;95574.25;4000479;34;20273;-84
2021/12/28 00:05:40;;;;;;;9.55;6.38;;;2.80;85.10;;;1.42;80.96;95571.56;3999388;34;20012;-84
2021/12/28 00:08:07;;;;;;;10.95;6.93;;;2.80;85.20;;;1.41;80.72;95574.50;3999475;34;20298;-84
2021/12/28 00:10:33;;;;;;;11.23;6.57;;;2.80;85.90;;;1.43;81.08;95577.75;3999659;34;20338;-84
2021/12/28 00:13:00;;;;;;;10.43;6.55;;;2.80;85.10;;;1.43;81.00;95577.75;3999769;34;20009;-84
2021/12/28 00:18:03;;;;;;;8.15;5.80;;;2.80;85.10;;;1.42;80.67;95587.75;3998031;34;20436;-84
2021/12/28 00:20:39;;;;;;;9.23;5.93;;;2.80;85.10;;;1.43;80.73;95583.16;4002408;34;20326;-84
2021/12/28 00:23:38;;;;;;;7.05;5.43;;;2.80;85.10;;;1.43;80.72;95588.56;4010788;34;20300;-84
2021/12/28 00:26:13;;;;;;;9.13;6.20;;;2.80;85.10;;;1.43;81.04;95586.69;4026965;34;20316;-84
2021/12/28 00:28:42;;;;;;;9.82;6.55;;;2.80;85.30;;;1.42;81.01;95587.75;4066754;34;20330;-83
2021/12/28 00:31:08;;;;;;;8.35;5.30;;;2.80;85.20;;;1.43;80.84;95594.78;4005629;34;20008;-84
2021/12/28 00:33:35;;;;;;;9.45;6.20;;;2.80;85.20;;;1.43;81.05;95604.72;4070001;34;20289;-83
2021/12/28 00:36:01;;;;;;;9.77;5.55;;;2.80;85.10;;;1.42;80.81;95590.44;4025457;34;20022;-84
2021/12/28 00:38:28;;;;;;;8.93;5.85;;;2.80;85.10;;;1.41;80.66;95586.09;4043977;34;20317;-84
2021/12/28 00:40:59;;;;;;;8.48;5.63;;;2.80;85.20;;;1.42;80.88;95595.03;4032443;34;20531;-84
2021/12/28 00:43:28;;;;;;;8.18;5.80;;;2.80;85.20;;;1.41;80.84;95596.88;4046526;34;20270;-84
2021/12/28 00:45:54;;;;;;;7.78;5.03;;;2.80;85.10;;;1.41;80.92;95602.28;4020080;34;20012;-84
2021/12/28 00:48:21;;;;;;;10.13;5.72;;;2.80;85.10;;;1.43;80.90;95600.19;4004797;34;20269;-84
2021/12/28 00:50:47;;;;;;;7.60;5.25;;;2.80;85.10;;;1.43;80.94;95607.44;4000477;34;20057;-84
2021/12/28 00:53:14;;;;;;;9.25;5.40;;;2.80;85.10;;;1.43;80.88;95600.19;4000210;34;20673;-84
2021/12/28 00:55:40;;;;;;;7.97;5.43;;;2.80;85.10;;;1.42;80.91;95595.84;3999126;34;20531;-84
2021/12/28 00:58:07;;;;;;;10.82;5.65;;;2.80;85.10;;;1.42;80.85;95597.72;4043935;34;20290;-84
2021/12/28 01:00:36;;;;;;;10.77;6.47;;;2.80;85.20;;;1.43;80.55;95605.56;4023956;34;20286;-84
2021/12/28 01:03:04;;;;;;;9.57;5.72;;;2.80;85.20;;;1.42;81.03;95598.53;4002877;34;20322;-84
2021/12/28 01:05:31;;;;;;;7.88;5.22;;;2.80;85.20;;;1.44;80.76;95606.38;4044927;34;20267;-84
2021/12/28 01:07:57;;;;;;;7.57;5.00;;;2.80;85.20;;;1.42;80.86;95597.72;4001968;34;20276;-83
2021/12/28 01:10:38;;;;;;;7.05;4.63;;;2.80;85.20;;;1.43;80.95;95610.13;4001834;34;20296;-84
2021/12/28 01:13:05;;;;;;;7.85;5.57;;;2.80;85.20;;;1.42;81.14;95603.94;4024525;34;20407;-84
2021/12/28 01:15:31;;;;;;;7.90;5.18;;;2.80;85.20;;;1.44;80.97;95601.81;4023131;34;20270;-84
2021/12/28 01:17:58;;;;;;;6.90;4.50;;;2.80;85.20;;;1.44;80.90;95601.81;4002810;34;20293;-83
2021/12/28 01:20:25;;;;;;;7.03;5.05;;;2.80;85.20;;;1.43;80.95;95599.34;4023324;34;20283;-84
2021/12/28 01:22:51;;;;;;;11.75;5.43;;;2.80;85.30;;;1.44;80.96;95603.69;4042736;34;20138;-84
2021/12/28 01:25:18;;;;;;;6.07;4.18;;;2.80;85.20;;;1.42;80.60;95598.53;4021917;34;20087;-84
2021/12/28 01:27:44;;;;;;;8.95;5.35;;;2.80;85.20;;;1.44;80.77;95606.38;4002157;34;20038;-84
2021/12/28 01:30:11;;;;;;;6.97;4.68;;;2.80;85.30;;;1.43;81.29;95605.56;4022431;34;20322;-84
2021/12/28 01:32:38;;;;;;;7.10;4.88;;;2.80;85.20;;;1.43;80.85;95596.66;4022816;34;20303;-83
2021/12/28 01:35:08;;;;;;;6.20;4.15;;;2.80;85.30;;;1.42;80.75;95603.13;4031223;34;20320;-84
2021/12/28 01:37:34;;;;;;;7.22;4.85;;;2.80;85.40;;;1.43;81.28;95610.97;4019338;34;20318;-84
2021/12/28 01:40:01;;;;;;;6.95;4.70;;;2.80;86.20;;;1.42;81.39;95606.63;3997198;34;20377;-84
2021/12/28 01:42:28;;;;;;;6.40;4.32;;;2.80;85.40;;;1.43;81.27;95599.34;3997947;34;20004;-84
2021/12/28 01:44:55;;;;;;;7.03;4.68;;;2.80;85.40;;;1.43;81.37;95594.78;4019619;34;20312;-84
2021/12/28 01:47:21;;;;;;;5.93;4.10;;;2.80;85.40;;;1.43;81.43;95596.66;3957487;34;20276;-84
2021/12/28 01:49:47;;;;;;;6.18;4.22;;;2.80;85.40;;;1.43;81.07;95594.78;4018824;34;20229;-84
2021/12/28 01:52:13;;;;;;;5.63;3.90;;;2.80;85.30;;;1.43;81.10;95602.03;3997171;34;20100;-84
2021/12/28 01:54:40;;;;;;;6.35;3.70;;;2.80;85.50;;;1.42;81.32;95601.22;4018907;34;20293;-84
2021/12/28 01:57:07;;;;;;;5.78;3.88;;;2.70;85.60;;;1.42;81.29;95609.31;3955732;34;20634;-84
2021/12/28 01:59:33;;;;;;;5.75;3.72;;;2.80;85.60;;;1.44;81.54;95612.63;4019514;34;20005;-84
2021/12/28 02:02:00;;;;;;;6.65;4.20;;;2.80;85.60;;;1.42;81.17;95612.00;4021691;34;20313;-84
2021/12/28 02:04:28;;;;;;;5.68;3.55;;;2.80;85.50;;;1.44;81.04;95612.63;4021043;34;20271;-84
2021/12/28 02:06:57;;;;;;;6.70;3.95;;;2.80;85.50;;;1.43;81.38;95618.22;4000797;34;20000;-84
2021/12/28 02:09:24;;;;;;;6.15;3.80;;;2.80;85.40;;;1.42;81.01;95614.72;4001639;34;20319;-84
2021/12/28 02:11:52;;;;;;;4.47;3.20;;;2.80;85.50;;;1.43;80.93;95613.66;3957912;34;20008;-84
2021/12/28 02:14:21;;;;;;;5.70;3.53;;;2.80;85.60;;;1.43;81.44;95610.13;3998817;34;20403;-84
2021/12/28 02:16:48;;;;;;;6.80;3.90;;;2.80;85.60;;;1.43;81.40;95612.81;3999279;34;19996;-84
2021/12/28 02:19:15;;;;;;;4.88;3.08;;;2.80;85.50;;;1.43;81.14;95612.81;4037416;34;20330;-84
2021/12/28 02:21:42;;;;;;;6.72;3.78;;;2.80;85.50;;;1.43;81.25;95613.66;3973834;34;20291;-84
2021/12/28 02:24:09;;;;;;;4.60;3.10;;;2.80;85.50;;;1.43;81.36;95605.56;3996098;34;20330;-84
2021/12/28 02:26:35;;;;;;;5.75;3.45;;;2.80;85.60;;;1.43;81.41;95613.66;3996166;34;20275;-84
2021/12/28 02:29:02;;;;;;;4.20;2.90;;;2.80;85.70;;;1.42;81.27;95609.31;4039609;34;20050;-84
2021/12/28 02:31:28;;;;;;;5.82;3.13;;;2.80;85.60;;;1.43;81.30;95613.66;4039361;34;20303;-84
2021/12/28 02:33:55;;;;;;;4.78;2.97;;;2.80;85.60;;;1.44;81.43;95606.38;4018147;34;20367;-84
2021/12/28 02:36:21;;;;;;;4.35;2.95;;;2.80;85.60;;;1.43;81.32;95607.44;4017317;34;20012;-84
2021/12/28 02:38:48;;;;;;;5.15;2.95;;;2.80;85.60;;;1.42;81.23;95613.91;4017757;34;20291;-83
2021/12/28 02:41:14;;;;;;;5.97;3.15;;;2.80;85.60;;;1.44;81.53;95612.63;4017463;34;20212;-84
2021/12/28 02:43:47;;;;;;;4.05;2.75;;;2.80;86.40;;;1.45;80.88;95613.44;4043782;34;20278;-84
2021/12/28 02:46:16;;;;;;;5.43;2.72;;;2.80;85.60;;;1.42;81.07;95614.72;4022647;34;20004;-84
2021/12/28 02:48:43;;;;;;;4.20;3.00;;;2.80;85.60;;;1.43;81.18;95610.97;4021863;34;20235;-84
2021/12/28 02:51:15;;;;;;;4.97;2.65;;;2.80;85.60;;;1.43;81.52;95612.81;4019668;34;20004;-84
2021/12/28 02:53:43;;;;;;;4.57;2.90;;;2.80;85.60;;;1.43;81.51;95610.97;3976890;34;20337;-83
2021/12/28 02:56:09;;;;;;;5.05;2.55;;;2.80;85.60;;;1.43;81.57;95608.28;3996959;34;20287;-83
2021/12/28 02:58:45;;;;;;;4.53;2.70;;;2.80;85.60;;;1.44;81.12;95609.09;4041164;34;20389;-83
2021/12/28 03:01:22;;;;;;;3.95;2.58;;;2.80;85.60;;;1.43;81.19;95610.97;3998952;34;20339;-84
2021/12/28 03:03:51;;;;;;;;;;;2.80;85.70;;;1.43;81.44;95612.81;4064148;34;20019;-83
2021/12/28 03:06:19;;;;;;;4.18;2.45;;;2.80;86.50;;;1.43;81.63;95613.66;4040688;34;20233;-84
2021/12/28 03:08:53;;;;;;;4.60;2.85;;;2.80;85.70;;;1.43;81.43;95613.66;4080205;34;20004;-84
2021/12/28 03:11:20;;;;;;;4.25;2.28;;;2.80;85.70;;;1.44;81.40;95611.78;4059394;34;20308;-83
2021/12/28 03:13:54;;;;;;;4.32;2.20;;;2.80;85.70;;;1.43;81.60;95608.28;3993269;34;20313;-83
2021/12/28 03:16:22;;;;;;;3.88;2.25;;;2.80;85.70;;;1.42;81.26;95603.94;4036463;34;20031;-83
2021/12/28 03:18:48;;;;;;;4.20;2.33;;;2.80;85.70;;;1.43;81.46;95616.38;4042139;34;20000;-84
2021/12/28 03:21:17;;;;;;;4.07;2.67;;;2.80;85.70;;;1.43;81.20;95616.38;4021145;34;20693;-83
2021/12/28 03:23:45;;;;;;;3.10;2.00;;;2.80;85.70;;;1.42;81.83;95612.00;4062626;34;20322;-83
2021/12/28 03:26:12;;;;;;;3.63;1.88;;;2.80;85.70;;;1.42;81.49;95613.91;3997234;34;20018;-84
2021/12/28 03:28:41;;;;;;;4.05;2.45;;;2.80;85.70;;;1.42;81.50;95619.31;4066640;34;20336;-84
2021/12/28 03:31:15;;;;;;;4.15;2.40;;;2.80;85.70;;;1.41;81.57;95621.16;3981823;34;20000;-83
2021/12/28 03:33:44;;;;;;;3.50;1.88;;;2.80;85.70;;;1.43;81.21;95626.31;4004480;34;20028;-84
2021/12/28 03:36:10;;;;;;;4.75;2.35;;;2.80;85.70;;;1.43;81.59;95619.06;3981111;34;20008;-84
2021/12/28 03:38:38;;;;;;;2.97;1.83;;;2.80;85.70;;;1.43;81.42;95629.00;4068022;34;20333;-84
2021/12/28 03:41:08;;;;;;;4.47;2.55;;;2.80;85.70;;;1.43;81.12;95626.31;4045800;34;20353;-84
2021/12/28 03:43:41;;;;;;;3.25;2.15;;;2.80;85.60;;;1.43;81.46;95632.53;4046020;34;20001;-84
2021/12/28 03:46:08;;;;;;;3.70;1.88;;;2.80;85.60;;;1.44;81.20;95627.97;3980912;34;20308;-84
2021/12/28 03:48:35;;;;;;;3.17;1.95;;;2.80;85.60;;;1.43;81.56;95626.31;4001592;34;20296;-84
2021/12/28 03:51:02;;;;;;;3.42;2.13;;;2.80;85.70;;;1.43;81.52;95626.31;4066693;34;20027;-84
2021/12/28 03:53:29;;;;;;;3.78;1.98;;;2.80;85.60;;;1.43;81.32;95629.00;4001951;34;20642;-84
2021/12/28 03:55:55;;;;;;;3.35;2.15;;;2.80;85.70;;;1.43;81.50;95629.84;4043931;34;19996;-84
2021/12/28 03:58:21;;;;;;;2.90;1.60;;;2.80;85.60;;;1.44;81.41;95636.91;4066305;34;20004;-84
2021/12/28 04:00:48;;;;;;;2.70;1.70;;;2.80;85.60;;;1.44;81.16;95633.34;4066867;34;20290;-84
2021/12/28 04:03:15;;;;;;;3.45;1.73;;;2.80;85.60;;;1.44;81.38;95630.66;4001904;34;20042;-83
2021/12/28 04:05:44;;;;;;;3.15;1.73;;;2.80;85.60;;;1.42;81.38;95636.28;4089345;34;19984;-84
2021/12/28 04:08:13;;;;;;;2.58;1.80;;;2.80;85.60;;;1.43;81.54;95637.94;4043993;34;20044;-84
2021/12/28 04:11:02;;;;;;;3.65;1.83;;;2.80;85.60;;;1.43;80.87;95637.09;4064863;34;20193;-84
2021/12/28 04:13:28;;;;;;;3.03;1.90;;;2.80;85.60;;;1.43;81.20;95643.34;4025858;34;20058;-84
2021/12/28 04:15:55;;;;;;;3.13;1.75;;;2.80;85.70;;;1.44;81.40;95638.75;3980280;34;20282;-84
2021/12/28 04:18:21;;;;;;;2.85;1.90;;;2.80;85.70;;;1.43;81.43;95643.34;4045229;34;20067;-84
2021/12/28 04:20:47;;;;;;;2.75;1.65;;;2.80;85.70;;;1.43;81.49;95637.94;4044742;34;20379;-84
2021/12/28 04:23:14;;;;;;;2.53;1.58;;;2.80;85.60;;;1.42;81.50;95636.28;4044302;34;20377;-84
2021/12/28 04:25:40;;;;;;;2.60;1.80;;;2.80;85.70;;;1.42;81.26;95632.78;3999250;34;20007;-84
2021/12/28 04:28:06;;;;;;;3.08;1.60;;;2.80;85.70;;;1.43;81.36;95637.94;4042223;34;20189;-83
2021/12/28 04:30:33;;;;;;;3.00;1.60;;;2.80;85.70;;;1.43;81.54;95646.03;3977736;34;20751;-84
2021/12/28 04:32:59;;;;;;;2.90;1.42;;;2.80;85.70;;;1.44;81.47;95644.97;4042265;34;20056;-84
2021/12/28 04:35:25;;;;;;;3.85;1.45;;;2.80;85.80;;;1.43;81.42;95637.94;4020058;34;20014;-84
2021/12/28 04:37:51;;;;;;;2.33;1.30;;;2.80;85.70;;;1.41;81.62;95637.34;4044679;34;20657;-84
2021/12/28 04:40:18;;;;;;;2.55;1.25;;;2.80;85.80;;;1.41;81.46;95640.03;4023215;34;20284;-84
2021/12/28 04:42:44;;;;;;;3.53;1.55;;;2.80;85.80;;;1.42;81.23;95632.78;3975316;34;20248;-84
2021/12/28 04:45:11;;;;;;;2.75;1.58;;;2.80;85.80;;;1.44;81.66;95633.34;4018211;34;20320;-84
2021/12/28 04:47:38;;;;;;;2.17;1.45;;;2.80;85.80;;;1.42;81.39;95641.69;4018372;34;20097;-84
2021/12/28 04:50:06;;;;;;;2.20;1.23;;;2.80;85.80;;;1.43;81.60;95648.72;4064725;34;20073;-84
2021/12/28 04:52:37;;;;;;;2.22;1.52;;;2.80;85.80;;;1.43;81.70;95648.72;4018217;34;20649;-84
2021/12/28 04:55:10;;;;;;;1.55;1.10;;;2.80;85.80;;;1.44;81.45;95644.16;4018713;34;20025;-84
2021/12/28 04:57:37;;;;;;;6.82;1.00;;;2.80;85.80;;;1.43;81.69;95646.03;4041165;34;20290;-84
2021/12/28 05:00:07;;;;;;;1.90;1.23;;;2.80;85.90;;;1.44;81.73;95652.25;4020461;34;20295;-84
2021/12/28 05:02:34;;;;;;;2.47;1.55;;;2.80;85.80;;;1.43;81.75;95651.44;4023796;34;20291;-84
2021/12/28 05:05:00;;;;;;;3.08;1.67;;;2.80;85.80;;;1.43;81.56;95653.28;4040881;34;20343;-84
2021/12/28 05:07:27;;;;;;;2.13;1.42;;;2.80;85.80;;;1.43;81.58;95655.97;4043037;34;20395;-84
2021/12/28 05:09:57;;;;;;;2.22;1.38;;;2.80;85.90;;;1.42;81.52;95657.88;4021080;34;20297;-84
2021/12/28 05:12:27;;;;;;;2.25;1.30;;;2.80;85.80;;;1.43;81.56;95658.69;4000777;34;20708;-84
2021/12/28 05:14:53;;;;;;;1.98;1.15;;;2.80;85.90;;;1.42;81.75;95655.16;3996606;34;20011;-84
2021/12/28 05:17:20;;;;;;;2.13;1.20;;;2.80;85.90;;;1.44;81.55;95666.56;4019920;34;20285;-84
2021/12/28 05:19:46;;;;;;;2.22;1.25;;;2.80;85.80;;;1.42;81.43;95660.56;4000453;34;20284;-84
2021/12/28 05:22:12;;;;;;;2.22;1.27;;;2.80;85.70;;;1.43;81.45;95664.91;3980084;34;20019;-84
2021/12/28 05:24:39;;;;;;;2.25;1.20;;;2.80;85.80;;;1.42;81.62;95665.97;4043704;34;20318;-84
2021/12/28 05:27:06;;;;;;;2.22;1.10;;;2.80;85.90;;;1.43;81.51;95664.06;4048188;34;20564;-84
2021/12/28 05:29:32;;;;;;;2.38;1.50;;;2.80;85.90;;;1.42;81.31;95663.25;4022964;34;20007;-84
2021/12/28 05:31:58;;;;;;;2.60;1.30;;;2.80;85.90;;;1.42;81.58;95665.97;4043835;34;20062;-84
2021/12/28 05:34:25;;;;;;;2.88;1.40;;;2.80;85.90;;;1.44;81.45;95668.41;4064837;34;20309;-84
2021/12/28 05:36:51;;;;;;;2.10;1.20;;;2.80;85.80;;;1.42;81.08;95667.84;4065131;34;20599;-84
2021/12/28 05:39:17;;;;;;;2.08;1.10;;;2.80;85.80;;;1.42;81.62;95673.25;4021540;34;20371;-84
2021/12/28 05:41:44;;;;;;;1.83;1.00;;;2.80;85.90;;;1.41;81.51;95672.41;3995865;34;20334;-84
2021/12/28 05:44:10;;;;;;;2.08;0.98;;;2.80;85.80;;;1.43;81.33;95674.84;4016654;34;20322;-84
2021/12/28 05:46:36;;;;;;;3.20;1.60;;;2.80;85.80;;;1.41;81.58;95672.41;4016941;34;20012;-84
2021/12/28 05:49:03;;;;;;;1.88;1.13;;;2.80;85.80;;;1.41;81.24;95672.41;4015798;34;20394;-84
2021/12/28 05:51:30;;;;;;;2.60;1.38;;;2.80;85.90;;;1.43;81.61;95673.00;4015177;34;20322;-84
2021/12/28 05:53:56;;;;;;;2.15;1.30;;;2.80;85.80;;;1.42;81.42;95673.25;4014047;34;20275;-84
2021/12/28 05:56:22;;;;;;;1.88;0.93;;;2.80;85.70;;;1.43;81.53;95681.09;3986850;34;20012;-84
2021/12/28 05:58:48;;;;;;;2.47;1.27;;;2.80;85.70;;;1.40;81.48;95676.16;4008333;34;20051;-84
2021/12/28 06:01:15;;;;;;;2.10;1.45;;;2.80;85.80;;;1.42;81.25;95690.22;4008706;34;20296;-84
2021/12/28 06:03:41;;;;;;;2.28;1.40;;;2.80;85.70;;;1.42;81.40;95690.22;4006745;34;20008;-83
2021/12/28 06:06:07;;;;;;;2.65;1.42;;;2.80;85.80;;;1.42;81.66;95698.31;4004073;34;20307;-84
2021/12/28 06:08:41;;;;;;;2.83;1.75;;;2.80;85.90;;;1.43;81.64;95696.44;4004275;34;20281;-84
2021/12/28 06:11:12;;;;;;;1.88;1.13;;;2.80;85.80;;;1.41;81.61;95693.97;4006609;34;20010;-83
2021/12/28 06:13:40;;;;;;;2.65;1.42;;;2.80;85.90;;;1.43;81.30;95702.66;4007085;34;20282;-83
2021/12/28 06:16:09;;;;;;;2.65;1.52;;;2.80;85.90;;;1.43;81.47;95705.38;4007108;34;20370;-84
2021/12/28 06:18:35;;;;;;;1.98;1.23;;;2.80;85.80;;;1.42;81.46;95717.19;4011169;34;20582;-84
2021/12/28 06:21:01;;;;;;;2.20;1.33;;;2.80;85.80;;;1.42;81.31;95706.41;3989091;34;20015;-83
2021/12/28 06:23:28;;;;;;;3.10;1.65;;;2.80;85.80;;;1.42;81.54;95711.81;4010621;34;20275;-83
2021/12/28 06:25:54;;;;;;;2.63;1.40;;;2.80;85.80;;;1.44;81.36;95715.13;3988624;34;20008;-83
2021/12/28 06:28:21;;;;;;;4.80;2.22;;;2.80;85.90;;;1.42;81.59;95714.50;3988949;34;20308;-84
2021/12/28 06:30:47;;;;;;;3.05;1.83;;;2.80;85.80;;;1.41;81.08;95715.56;4053850;34;20614;-83
2021/12/28 06:33:13;;;;;;;3.42;1.55;;;2.80;85.70;;;1.42;80.97;95730.69;3989508;34;20000;-84
2021/12/28 06:35:40;;;;;;;5.07;2.60;;;2.80;85.70;;;1.42;81.34;95722.59;3988886;34;20307;-84
2021/12/28 06:38:06;;;;;;;3.50;1.63;;;2.80;85.70;;;1.43;81.22;95731.50;3988656;34;20039;-84
2021/12/28 06:40:32;;;;;;;3.10;1.80;;;2.80;85.70;;;1.42;81.70;95735.28;4010446;34;20355;-83
2021/12/28 06:42:59;;;;;;;3.53;1.88;;;2.80;85.80;;;1.42;81.29;95738.78;3969931;34;20285;-84
2021/12/28 06:45:26;;;;;;;2.53;1.60;;;2.80;85.80;;;1.41;81.59;95742.53;4034657;34;20000;-84
2021/12/28 06:47:52;;;;;;;4.43;1.67;;;2.80;85.80;;;1.42;81.68;95743.38;4036840;34;20008;-83
2021/12/28 06:50:18;;;;;;;3.90;1.98;;;2.80;85.80;;;1.43;81.44;95751.22;3998213;34;20661;-83
2021/12/28 06:52:45;;;;;;;3.92;2.15;;;2.80;85.80;;;1.41;81.37;95750.63;3992866;34;20619;-83
2021/12/28 06:55:11;;;;;;;4.05;2.10;;;2.80;85.90;;;1.44;81.49;95754.72;3991045;34;20357;-83
2021/12/28 06:57:38;;;;;;;4.40;2.28;;;2.80;85.80;;;1.43;81.27;95753.91;4035005;34;20286;-83
2021/12/28 07:00:13;;;;;;;4.22;1.98;;;2.80;85.70;;;1.42;81.66;95752.28;4018765;34;20316;-83
2021/12/28 07:02:39;;;;;;;5.03;2.30;;;2.80;85.80;;;1.44;81.62;95746.63;3998679;34;20303;-83
2021/12/28 07:05:07;;;;;;;4.13;2.17;;;2.80;85.70;;;1.43;81.18;95756.63;4011992;34;20305;-82
2021/12/28 07:07:34;;;;;;;4.05;2.17;;;2.80;85.80;;;1.44;81.74;95755.56;4038781;34;20187;-83
2021/12/28 07:10:00;;;;;;;3.70;2.10;;;2.80;85.80;;;1.42;81.40;95754.97;4018115;34;20035;-83
2021/12/28 07:12:27;;;;;;;2.57;1.57;;;2.80;85.80;;;1.43;81.61;95759.31;4061610;34;20587;-83
2021/12/28 07:14:53;;;;;;;4.60;2.25;;;2.80;85.90;;;1.42;81.56;95752.28;4017514;34;20189;-83
2021/12/28 07:17:19;;;;;;;3.17;2.05;;;2.80;85.80;;;1.42;81.38;95760.34;3996415;34;20008;-83
2021/12/28 07:19:46;;;;;;;5.13;2.63;;;2.80;85.70;;;1.42;81.45;95757.66;4061422;34;20621;-83
2021/12/28 07:22:12;;;;;;;4.03;2.10;;;2.80;85.70;;;1.43;81.17;95747.69;4061699;34;19999;-83
2021/12/28 07:24:39;;;;;;;4.70;2.53;;;2.80;85.70;;;1.43;81.34;95753.06;3992021;34;20366;-83
2021/12/28 07:27:05;;;;;;;3.22;2.00;;;2.80;85.70;;;1.42;81.71;95749.56;3949793;34;19993;-83
2021/12/28 07:29:33;;;;;;;4.03;2.10;;;2.80;85.70;;;1.43;81.61;95753.06;3970193;34;20107;-83
2021/12/28 07:32:02;;;;;;;4.05;2.97;;;2.80;85.80;;;1.43;81.42;95751.22;3972187;34;20248;-83
2021/12/28 07:34:31;;;;;;;3.50;1.92;;;2.80;85.80;;;1.44;81.40;95757.44;3972150;34;20312;-83
2021/12/28 07:36:57;;;;;;;4.60;2.03;;;2.80;85.70;;;1.44;81.49;95757.44;3971424;34;20294;-83
2021/12/28 07:39:23;;;;;;;4.05;1.85;;;2.80;85.70;;;1.44;81.50;95763.66;3971119;34;20040;-83
2021/12/28 07:41:49;;;;;;;2.97;1.83;;;2.80;85.80;;;1.44;81.52;95752.88;3971470;34;20298;-83
2021/12/28 07:44:16;;;;;;;3.38;1.92;;;2.80;85.80;;;1.45;81.66;95770.72;3970416;34;20030;-83
2021/12/28 07:46:42;;;;;;;4.72;2.20;;;2.80;85.70;;;1.45;81.46;95764.47;3970827;34;20373;-83
2021/12/28 07:49:09;;;;;;;2.40;1.52;;;2.80;85.70;;;1.45;81.57;95756.38;3970874;34;20391;-83
2021/12/28 07:51:35;;;;;;;4.53;2.40;;;2.80;85.70;;;1.44;81.27;95758.25;3951993;34;20018;-83
2021/12/28 07:54:02;;;;;;;3.92;2.03;;;2.80;85.70;;;1.45;81.55;95765.31;3952113;34;20362;-83
2021/12/28 07:56:28;;;;;;;3.28;2.22;;;2.80;85.70;;;1.45;81.26;95775.25;3972717;34;20075;-83
2021/12/28 07:58:54;;;;;;;3.50;1.95;;;2.80;85.70;;;1.45;81.37;95776.09;3973062;34;20225;-83
2021/12/28 08:01:21;;;;;;;3.60;2.30;;;2.80;85.70;;;1.45;81.39;95770.72;3973248;34;20285;-83
2021/12/28 08:03:47;;;;;;;3.65;1.92;;;2.80;85.70;;;1.45;81.27;95770.72;3973676;34;19996;-83
2021/12/28 08:06:13;;;;;;;3.50;2.03;;;2.80;85.60;;;1.45;81.29;95764.47;3973063;34;20036;-84
2021/12/28 08:08:39;;;;;;;4.75;2.55;;;2.80;85.70;;;1.46;81.46;95766.13;3973659;34;20393;-83
2021/12/28 08:11:06;;;;;;;3.22;1.98;;;2.80;85.60;;;1.46;81.52;95769.66;3974059;34;20401;-83
2021/12/28 08:13:32;;;;;;;4.35;2.40;;;2.80;85.70;;;1.46;81.47;95772.38;3975049;34;20017;-83
2021/12/28 08:15:58;;;;;;;3.42;2.55;;;2.80;85.70;;;1.45;81.46;95770.72;3974102;34;20233;-83
2021/12/28 08:18:25;;;;;;;2.92;2.05;;;2.80;85.70;;;1.45;81.19;95768.00;3994909;34;20271;-83
2021/12/28 08:20:51;;;;;;;2.60;1.77;;;2.80;85.60;;;1.46;81.41;95766.13;3973342;34;20268;-83
2021/12/28 08:23:17;;;;;;;5.30;3.35;;;2.80;85.60;;;1.44;81.35;95766.34;3973678;34;20075;-83
2021/12/28 08:25:43;;;;;;;5.43;2.85;;;2.80;85.60;;;1.44;81.38;95763.66;3994198;34;20568;-83
2021/12/28 08:28:10;;;;;;;5.50;3.45;;;2.80;85.60;;;1.44;81.28;95752.88;3973156;34;20303;-83
2021/12/28 08:30:37;;;;;;;5.38;2.90;;;2.80;85.60;;;1.45;81.42;95759.91;3974718;34;20005;-83
2021/12/28 08:33:06;;;;;;;3.90;2.60;;;2.80;85.50;;;1.46;80.91;95766.97;3997236;34;20299;-83
2021/12/28 08:35:32;;;;;;;4.40;2.38;;;2.80;85.60;;;1.46;81.22;95771.53;3975897;34;19980;-83
2021/12/28 08:37:59;;;;;;;3.83;2.30;;;2.80;85.60;;;1.46;81.75;95766.13;3976725;34;20291;-83
2021/12/28 08:40:25;;;;;;;4.32;2.53;;;2.80;85.60;;;1.46;81.44;95766.97;3976053;34;19992;-83
2021/12/28 08:42:52;;;;;;;3.50;2.35;;;2.80;85.60;;;1.45;81.21;95768.00;3956658;34;20304;-83
2021/12/28 08:45:18;;;;;;;4.35;2.67;;;2.80;85.50;;;1.46;81.37;95766.97;3957955;34;19996;-83
2021/12/28 08:47:47;;;;;;;3.58;2.50;;;2.80;85.60;;;1.46;81.65;95769.66;3978014;34;20293;-83
2021/12/28 08:50:14;;;;;;;2.42;1.83;;;2.80;85.60;;;1.47;81.52;95756.97;3977040;34;20281;-83
2021/12/28 08:52:40;;;;;;;3.63;2.40;;;2.80;85.70;;;1.47;81.61;95768.63;3997694;34;20005;-83
2021/12/28 08:55:07;;;;;;;4.45;2.47;;;2.80;85.60;;;1.48;81.17;95758.63;4011113;34;20291;-83
2021/12/28 08:57:34;;;;;;;3.58;2.05;;;2.80;85.60;;;1.48;81.51;95754.09;4010896;34;20333;-83
2021/12/28 09:00:00;;;;;;;2.90;2.05;;;2.80;85.60;;;1.48;81.42;95746.00;3990122;34;20523;-83
2021/12/28 09:02:26;;;;;;;4.70;2.50;;;2.80;85.60;;;1.48;81.22;95756.78;3988439;34;20005;-83
2021/12/28 09:04:52;;;;;;;3.65;2.28;;;2.80;85.60;;;1.49;81.34;95755.72;3962488;34;20372;-83
2021/12/28 09:07:19;;;;;;;3.85;2.53;;;2.80;85.60;;;1.51;81.62;95755.50;4004892;34;20287;-83
2021/12/28 09:09:45;;;;;;;4.25;2.28;;;2.90;85.70;;;1.50;81.49;95751.16;3941302;34;20222;-83
2021/12/28 09:12:12;;;;;;;4.45;2.58;;;2.90;85.60;;;1.52;81.20;95749.88;3983948;34;20304;-83
2021/12/28 09:14:39;;;;;;;3.17;2.40;;;2.90;85.60;;;1.51;81.54;95744.72;4004299;34;20028;-83
2021/12/28 09:17:06;;;;;;;3.65;2.38;;;2.90;85.60;;;1.52;81.30;95741.78;3992255;34;20314;-83
2021/12/28 09:19:32;;;;;;;4.03;2.22;;;2.90;85.60;;;1.52;81.00;95744.47;3989908;34;20009;-83
2021/12/28 09:21:59;;;;;;;3.22;2.33;;;2.90;85.50;;;1.51;80.92;95742.81;3985687;34;20306;-83
2021/12/28 09:24:26;;;;;;;3.13;2.05;;;2.90;85.60;;;1.53;81.33;95745.31;3984786;34;20314;-83
2021/12/28 09:26:52;;;;;;;3.75;2.33;;;2.90;85.60;;;1.53;81.17;95738.03;3963291;34;20269;-83
2021/12/28 09:29:18;;;;;;;4.20;2.63;;;2.90;85.50;;;1.53;81.15;95746.13;3984772;34;20020;-83
2021/12/28 09:31:44;;;;;;;4.53;2.30;;;2.90;85.50;;;1.53;81.22;95734.53;4027579;34;20340;-83
2021/12/28 09:34:11;;;;;;;3.47;2.50;;;2.90;85.50;;;1.54;81.36;95736.19;4005845;34;20278;-83
2021/12/28 09:36:40;;;;;;;4.07;2.28;;;2.90;85.60;;;1.53;81.05;95739.91;3984213;34;20224;-83
2021/12/28 09:39:07;;;;;;;4.03;2.13;;;2.90;85.40;;;1.53;81.19;95740.72;4007900;34;20005;-83
2021/12/28 09:41:33;;;;;;;4.88;1.88;;;2.90;85.50;;;1.54;81.21;95741.56;3986318;34;20216;-83
2021/12/28 09:44:00;;;;;;;2.90;1.90;;;2.90;85.50;;;1.53;81.17;95734.53;3986196;34;20351;-83
2021/12/28 09:46:26;;;;;;;2.47;1.65;;;2.90;85.50;;;1.52;81.10;95733.69;3986837;34;20001;-83
2021/12/28 09:48:52;;;;;;;4.00;2.28;;;2.90;85.50;;;1.55;81.34;95731.59;4007989;34;20063;-83
2021/12/28 09:51:19;;;;;;;2.95;1.88;;;2.90;85.50;;;1.55;80.95;95734.28;3985818;34;20316;-83
2021/12/28 09:53:45;;;;;;;2.95;1.95;;;2.90;85.50;;;1.56;80.81;95733.25;3985738;34;20288;-83
2021/12/28 09:56:12;;;;;;;4.15;2.33;;;2.90;85.60;;;1.58;81.14;95731.16;3991477;34;20403;-83
2021/12/28 09:58:39;;;;;;;3.28;2.13;;;2.90;85.40;;;1.59;81.09;95730.91;3971029;34;20216;-83
2021/12/28 10:01:08;;;;;;;4.20;2.45;;;2.90;86.20;;;1.61;81.00;95730.69;3968035;34;20363;-83
2021/12/28 10:03:35;;;;;;;3.97;1.80;;;2.90;85.30;;;1.63;81.36;95723.19;3993607;34;20032;-83
2021/12/28 10:06:21;;;;;;;3.53;2.10;;;3.00;85.30;;;1.65;81.36;95723.78;3988001;34;20522;-83
2021/12/28 10:09:01;;;;;;;2.83;1.90;;;3.00;85.30;;;1.69;80.88;95722.28;4009113;34;20632;-83
2021/12/28 10:11:36;;;;;;;2.80;1.80;;;3.00;85.10;;;1.73;80.62;95726.19;4006611;34;20013;-83
2021/12/28 10:14:20;;;;;;;3.38;2.30;;;3.00;84.90;;;1.75;80.37;95731.34;3987472;34;20076;-83
2021/12/28 10:17:07;;;;;;;3.58;2.15;;;3.10;85.00;;;1.76;81.00;95728.41;4006519;34;20079;-83
2021/12/28 10:19:38;;;;;;;2.78;1.77;;;3.10;84.90;;;1.78;80.42;95723.63;3961365;34;20045;-84
2021/12/28 10:22:45;;;;;;;3.20;1.60;;;3.10;84.90;;;1.80;80.40;95726.94;4007396;34;20302;-83
2021/12/28 10:25:20;;;;;;;2.67;1.80;;;3.10;84.80;;;1.80;80.59;95723.41;3991162;34;20001;-83
2021/12/28 10:27:58;;;;;;;3.00;2.05;;;3.10;84.70;;;1.80;80.41;95726.13;3989205;34;20009;-83
2021/12/28 10:30:31;;;;;;;3.95;2.42;;;3.10;84.70;;;1.78;80.67;95720.94;3968476;34;20302;-83
2021/12/28 10:33:03;;;;;;;4.85;2.45;;;3.10;84.70;;;1.77;80.31;95718.47;4011037;34;20351;-83
2021/12/28 10:35:33;;;;;;;2.83;1.90;;;3.10;84.70;;;1.75;80.40;95721.38;3990588;34;20037;-83
2021/12/28 10:38:06;;;;;;;3.08;2.17;;;3.10;84.80;;;1.74;80.33;95718.91;3970144;34;20313;-83